sensor_id;sensor_type;location;lat;lon;timestamp;P1;durP1;ratioP1;P2;durP2;ratioP2
40601;SDS011;26310;50.278;19.032;2023-04-28T04:49:58;13.93;;;8.57;;
40601;SDS011;26310;50.278;19.032;2023-04-28T04:55:02;20.23;;;10.40;;
40601;SDS011;26310;50.278;19.032;2023-04-28T05:00:05;13.70;;;8.23;;
40601;SDS011;26310;50.278;19.032;2023-04-28T05:05:10;22.97;;;8.77;;
40601;SDS011;26310;50.278;19.032;2023-04-28T05:10:23;16.30;;;9.40;;
40601;SDS011;26310;50.278;19.032;2023-04-28T05:15:26;13.53;;;7.47;;
40601;SDS011;26310;50.278;19.032;2023-04-28T05:20:30;14.87;;;7.37;;
40601;SDS011;26310;50.278;19.032;2023-04-28T05:25:33;13.70;;;8.07;;
40601;SDS011;26310;50.278;19.032;2023-04-28T05:30:37;14.33;;;8.47;;
40601;SDS011;26310;50.278;19.032;2023-04-28T05:35:40;13.10;;;8.00;;
40601;SDS011;26310;50.278;19.032;2023-04-28T05:40:44;15.53;;;7.40;;
40601;SDS011;26310;50.278;19.032;2023-04-28T05:45:47;14.50;;;7.50;;
40601;SDS011;26310;50.278;19.032;2023-04-28T05:50:50;12.63;;;8.10;;
40601;SDS011;26310;50.278;19.032;2023-04-28T05:55:54;11.47;;;6.97;;
40601;SDS011;26310;50.278;19.032;2023-04-28T06:00:57;13.73;;;7.07;;
40601;SDS011;26310;50.278;19.032;2023-04-28T06:06:00;10.17;;;7.23;;
40601;SDS011;26310;50.278;19.032;2023-04-28T06:11:06;8.77;;;6.87;;
40601;SDS011;26310;50.278;19.032;2023-04-28T06:16:10;11.63;;;6.90;;
40601;SDS011;26310;50.278;19.032;2023-04-28T06:21:13;12.37;;;6.17;;
40601;SDS011;26310;50.278;19.032;2023-04-28T06:26:16;17.50;;;6.73;;
40601;SDS011;26310;50.278;19.032;2023-04-28T06:31:20;12.20;;;5.97;;
40601;SDS011;26310;50.278;19.032;2023-04-28T06:36:23;9.00;;;5.70;;
40601;SDS011;26310;50.278;19.032;2023-04-28T06:41:26;18.07;;;6.60;;
40601;SDS011;26310;50.278;19.032;2023-04-28T06:46:35;8.87;;;5.57;;
40601;SDS011;26310;50.278;19.032;2023-04-28T06:51:38;9.50;;;5.20;;
40601;SDS011;26310;50.278;19.032;2023-04-28T06:56:41;16.70;;;5.00;;
40601;SDS011;26310;50.278;19.032;2023-04-28T07:01:44;9.57;;;4.80;;
40601;SDS011;26310;50.278;19.032;2023-04-28T07:06:48;8.77;;;4.70;;
40601;SDS011;26310;50.278;19.032;2023-04-28T07:11:51;8.00;;;4.33;;
40601;SDS011;26310;50.278;19.032;2023-04-28T07:16:54;8.07;;;4.33;;
40601;SDS011;26310;50.278;19.032;2023-04-28T07:21:57;7.73;;;4.83;;
40601;SDS011;26310;50.278;19.032;2023-04-28T07:27:00;9.60;;;4.03;;
40601;SDS011;26310;50.278;19.032;2023-04-28T07:32:04;6.50;;;3.20;;
40601;SDS011;26310;50.278;19.032;2023-04-28T07:37:09;4.83;;;3.03;;
40601;SDS011;26310;50.278;19.032;2023-04-28T07:42:12;6.93;;;3.33;;
40601;SDS011;26310;50.278;19.032;2023-04-28T07:47:15;4.30;;;2.67;;
40601;SDS011;26310;50.278;19.032;2023-04-28T07:52:18;5.10;;;3.27;;
40601;SDS011;26310;50.278;19.032;2023-04-28T07:57:22;5.57;;;3.10;;
40601;SDS011;26310;50.278;19.032;2023-04-28T08:02:25;6.60;;;2.47;;
40601;SDS011;26310;50.278;19.032;2023-04-28T08:07:28;5.33;;;2.83;;
40601;SDS011;26310;50.278;19.032;2023-04-28T08:12:31;3.53;;;2.47;;
40601;SDS011;26310;50.278;19.032;2023-04-28T08:17:34;9.33;;;2.23;;
40601;SDS011;26310;50.278;19.032;2023-04-28T08:22:37;4.53;;;1.90;;
40601;SDS011;26310;50.278;19.032;2023-04-28T08:27:40;3.10;;;2.40;;
40601;SDS011;26310;50.278;19.032;2023-04-28T08:32:43;6.20;;;2.67;;
40601;SDS011;26310;50.278;19.032;2023-04-28T08:37:47;2.60;;;2.40;;
40601;SDS011;26310;50.278;19.032;2023-04-28T08:42:50;4.73;;;2.70;;
40601;SDS011;26310;50.278;19.032;2023-04-28T08:47:53;5.93;;;3.10;;
40601;SDS011;26310;50.278;19.032;2023-04-28T08:52:57;2.63;;;1.97;;
40601;SDS011;26310;50.278;19.032;2023-04-28T08:58:01;4.90;;;2.40;;
40601;SDS011;26310;50.278;19.032;2023-04-28T09:03:05;4.47;;;2.33;;
40601;SDS011;26310;50.278;19.032;2023-04-28T09:08:09;4.83;;;2.33;;
40601;SDS011;26310;50.278;19.032;2023-04-28T09:13:25;5.17;;;2.50;;
40601;SDS011;26310;50.278;19.032;2023-04-28T09:18:29;5.47;;;1.90;;
40601;SDS011;26310;50.278;19.032;2023-04-28T09:23:45;3.60;;;2.40;;
40601;SDS011;26310;50.278;19.032;2023-04-28T09:28:51;4.60;;;2.73;;
40601;SDS011;26310;50.278;19.032;2023-04-28T09:33:58;3.27;;;2.83;;
40601;SDS011;26310;50.278;19.032;2023-04-28T09:39:01;3.57;;;2.70;;
40601;SDS011;26310;50.278;19.032;2023-04-28T09:49:14;4.13;;;2.77;;
40601;SDS011;26310;50.278;19.032;2023-04-28T09:54:17;4.37;;;2.70;;
40601;SDS011;26310;50.278;19.032;2023-04-28T09:59:22;7.40;;;2.90;;
40601;SDS011;26310;50.278;19.032;2023-04-28T10:04:25;4.13;;;3.17;;
40601;SDS011;26310;50.278;19.032;2023-04-28T10:09:32;3.33;;;2.30;;
40601;SDS011;26310;50.278;19.032;2023-04-28T10:14:36;4.97;;;2.83;;
40601;SDS011;26310;50.278;19.032;2023-04-28T10:19:40;7.77;;;2.70;;
40601;SDS011;26310;50.278;19.032;2023-04-28T10:30:26;6.00;;;2.40;;
40601;SDS011;26310;50.278;19.032;2023-04-28T10:40:37;3.47;;;1.60;;
40601;SDS011;26310;50.278;19.032;2023-04-28T10:56:22;3.83;;;2.30;;
40601;SDS011;26310;50.278;19.032;2023-04-28T11:01:27;8.30;;;1.87;;
40601;SDS011;26310;50.278;19.032;2023-04-28T11:17:06;5.10;;;2.87;;
40601;SDS011;26310;50.278;19.032;2023-04-28T11:22:16;4.13;;;3.27;;
40601;SDS011;26310;50.278;19.032;2023-04-28T11:27:24;3.97;;;2.70;;
40601;SDS011;26310;50.278;19.032;2023-04-28T11:32:29;3.23;;;2.27;;
40601;SDS011;26310;50.278;19.032;2023-04-28T11:37:36;4.07;;;2.70;;
40601;SDS011;26310;50.278;19.032;2023-04-28T11:42:48;5.27;;;2.40;;
40601;SDS011;26310;50.278;19.032;2023-04-28T11:47:51;4.43;;;2.67;;
40601;SDS011;26310;50.278;19.032;2023-04-28T11:52:55;1.93;;;1.77;;
40601;SDS011;26310;50.278;19.032;2023-04-28T11:58:19;1.83;;;1.60;;
40601;SDS011;26310;50.278;19.032;2023-04-28T12:03:24;3.17;;;2.10;;
40601;SDS011;26310;50.278;19.032;2023-04-28T12:08:28;2.73;;;2.00;;
40601;SDS011;26310;50.278;19.032;2023-04-28T12:13:31;4.60;;;1.60;;
40601;SDS011;26310;50.278;19.032;2023-04-28T12:18:34;2.20;;;1.70;;
40601;SDS011;26310;50.278;19.032;2023-04-28T12:23:37;3.13;;;1.93;;
40601;SDS011;26310;50.278;19.032;2023-04-28T12:28:44;5.90;;;2.20;;
40601;SDS011;26310;50.278;19.032;2023-04-28T12:33:47;3.03;;;1.70;;
40601;SDS011;26310;50.278;19.032;2023-04-28T12:38:51;3.17;;;2.13;;
40601;SDS011;26310;50.278;19.032;2023-04-28T12:43:54;2.17;;;1.63;;
40601;SDS011;26310;50.278;19.032;2023-04-28T12:48:57;3.60;;;2.03;;
40601;SDS011;26310;50.278;19.032;2023-04-28T12:54:01;1.77;;;1.27;;
40601;SDS011;26310;50.278;19.032;2023-04-28T12:59:04;1.80;;;1.60;;
40601;SDS011;26310;50.278;19.032;2023-04-28T13:04:07;1.90;;;1.50;;
40601;SDS011;26310;50.278;19.032;2023-04-28T13:09:11;4.07;;;1.57;;
40601;SDS011;26310;50.278;19.032;2023-04-28T13:14:15;2.80;;;1.70;;
40601;SDS011;26310;50.278;19.032;2023-04-28T13:19:18;3.03;;;1.80;;
40601;SDS011;26310;50.278;19.032;2023-04-28T13:24:23;3.27;;;1.87;;
40601;SDS011;26310;50.278;19.032;2023-04-28T13:29:27;3.57;;;1.77;;
40601;SDS011;26310;50.278;19.032;2023-04-28T13:34:30;1.83;;;1.50;;
40601;SDS011;26310;50.278;19.032;2023-04-28T13:39:33;2.27;;;1.70;;
40601;SDS011;26310;50.278;19.032;2023-04-28T13:44:36;3.37;;;1.87;;
40601;SDS011;26310;50.278;19.032;2023-04-28T13:49:39;5.10;;;1.90;;
40601;SDS011;26310;50.278;19.032;2023-04-28T13:54:43;2.90;;;1.80;;
40601;SDS011;26310;50.278;19.032;2023-04-28T13:59:46;2.60;;;1.80;;
40601;SDS011;26310;50.278;19.032;2023-04-28T14:04:49;2.53;;;1.70;;
40601;SDS011;26310;50.278;19.032;2023-04-28T14:09:54;3.57;;;1.90;;
40601;SDS011;26310;50.278;19.032;2023-04-28T14:14:57;4.90;;;2.27;;
40601;SDS011;26310;50.278;19.032;2023-04-28T14:20:01;3.83;;;2.00;;
40601;SDS011;26310;50.278;19.032;2023-04-28T14:25:05;2.27;;;1.33;;
40601;SDS011;26310;50.278;19.032;2023-04-28T14:30:08;2.57;;;1.77;;
40601;SDS011;26310;50.278;19.032;2023-04-28T14:35:12;3.50;;;2.27;;
40601;SDS011;26310;50.278;19.032;2023-04-28T14:40:16;2.97;;;1.97;;
40601;SDS011;26310;50.278;19.032;2023-04-28T14:45:19;2.17;;;1.83;;
40601;SDS011;26310;50.278;19.032;2023-04-28T14:50:23;3.00;;;1.70;;
40601;SDS011;26310;50.278;19.032;2023-04-28T14:55:26;4.43;;;1.93;;
40601;SDS011;26310;50.278;19.032;2023-04-28T15:00:29;3.63;;;2.07;;
40601;SDS011;26310;50.278;19.032;2023-04-28T15:05:33;2.93;;;2.10;;
40601;SDS011;26310;50.278;19.032;2023-04-28T15:10:37;3.63;;;1.97;;
40601;SDS011;26310;50.278;19.032;2023-04-28T15:15:40;2.30;;;1.80;;
40601;SDS011;26310;50.278;19.032;2023-04-28T15:20:44;3.83;;;1.50;;
40601;SDS011;26310;50.278;19.032;2023-04-28T15:25:47;7.03;;;1.80;;
40601;SDS011;26310;50.278;19.032;2023-04-28T15:30:54;4.63;;;2.00;;
40601;SDS011;26310;50.278;19.032;2023-04-28T15:35:58;4.23;;;1.93;;
40601;SDS011;26310;50.278;19.032;2023-04-28T15:41:01;3.63;;;2.50;;
40601;SDS011;26310;50.278;19.032;2023-04-28T15:52:00;2.77;;;1.47;;
40601;SDS011;26310;50.278;19.032;2023-04-28T15:57:06;2.50;;;1.77;;
40601;SDS011;26310;50.278;19.032;2023-04-28T16:02:09;2.77;;;1.97;;
40601;SDS011;26310;50.278;19.032;2023-04-28T16:07:13;2.00;;;1.70;;
40601;SDS011;26310;50.278;19.032;2023-04-28T16:12:17;2.07;;;1.83;;
40601;SDS011;26310;50.278;19.032;2023-04-28T16:17:21;2.90;;;2.10;;
40601;SDS011;26310;50.278;19.032;2023-04-28T16:22:24;1.97;;;1.50;;
40601;SDS011;26310;50.278;19.032;2023-04-28T16:27:29;2.37;;;1.97;;
40601;SDS011;26310;50.278;19.032;2023-04-28T16:32:33;3.57;;;1.77;;
40601;SDS011;26310;50.278;19.032;2023-04-28T16:37:39;1.80;;;1.60;;
40601;SDS011;26310;50.278;19.032;2023-04-28T16:42:46;3.00;;;1.93;;
40601;SDS011;26310;50.278;19.032;2023-04-28T16:47:49;1.93;;;1.53;;
40601;SDS011;26310;50.278;19.032;2023-04-28T16:52:53;3.17;;;2.07;;
40601;SDS011;26310;50.278;19.032;2023-04-28T16:57:56;1.90;;;1.43;;
40601;SDS011;26310;50.278;19.032;2023-04-28T17:03:00;3.97;;;1.60;;
40601;SDS011;26310;50.278;19.032;2023-04-28T17:08:03;2.20;;;1.70;;
40601;SDS011;26310;50.278;19.032;2023-04-28T17:13:07;3.30;;;1.50;;
40601;SDS011;26310;50.278;19.032;2023-04-28T17:18:10;2.43;;;1.80;;
40601;SDS011;26310;50.278;19.032;2023-04-28T17:23:20;2.73;;;1.67;;
40601;SDS011;26310;50.278;19.032;2023-04-28T17:28:24;1.83;;;1.53;;
40601;SDS011;26310;50.278;19.032;2023-04-28T17:33:29;3.47;;;2.07;;
40601;SDS011;26310;50.278;19.032;2023-04-28T17:38:31;2.87;;;1.90;;
40601;SDS011;26310;50.278;19.032;2023-04-28T17:43:35;12.50;;;6.77;;
40601;SDS011;26310;50.278;19.032;2023-04-28T17:48:40;7.47;;;5.03;;
40601;SDS011;26310;50.278;19.032;2023-04-28T17:53:44;8.00;;;3.50;;
40601;SDS011;26310;50.278;19.032;2023-04-28T17:58:49;3.47;;;2.50;;
40601;SDS011;26310;50.278;19.032;2023-04-28T18:03:52;4.13;;;2.07;;
40601;SDS011;26310;50.278;19.032;2023-04-28T18:08:56;3.57;;;2.30;;
40601;SDS011;26310;50.278;19.032;2023-04-28T18:13:59;4.47;;;2.70;;
40601;SDS011;26310;50.278;19.032;2023-04-28T18:19:03;3.47;;;1.93;;
40601;SDS011;26310;50.278;19.032;2023-04-28T18:24:06;3.10;;;2.10;;
40601;SDS011;26310;50.278;19.032;2023-04-28T18:42:59;3.90;;;2.30;;
40601;SDS011;26310;50.278;19.032;2023-04-28T18:48:03;7.70;;;2.47;;
40601;SDS011;26310;50.278;19.032;2023-04-28T18:53:09;4.00;;;2.83;;
40601;SDS011;26310;50.278;19.032;2023-04-28T18:58:14;4.70;;;2.70;;
40601;SDS011;26310;50.278;19.032;2023-04-28T19:03:21;4.80;;;2.67;;
40601;SDS011;26310;50.278;19.032;2023-04-28T19:08:25;7.33;;;2.70;;
40601;SDS011;26310;50.278;19.032;2023-04-28T19:13:29;5.63;;;2.70;;
40601;SDS011;26310;50.278;19.032;2023-04-28T19:18:33;16.30;;;5.53;;
40601;SDS011;26310;50.278;19.032;2023-04-28T19:23:37;36.27;;;15.63;;
40601;SDS011;26310;50.278;19.032;2023-04-28T19:28:42;27.63;;;9.57;;
40601;SDS011;26310;50.278;19.032;2023-04-28T19:33:45;19.23;;;8.87;;
40601;SDS011;26310;50.278;19.032;2023-04-28T19:38:49;5.37;;;3.17;;
40601;SDS011;26310;50.278;19.032;2023-04-28T19:43:53;7.57;;;2.77;;
40601;SDS011;26310;50.278;19.032;2023-04-28T19:48:56;4.40;;;2.73;;
40601;SDS011;26310;50.278;19.032;2023-04-28T19:53:59;5.67;;;2.93;;
40601;SDS011;26310;50.278;19.032;2023-04-28T19:59:02;8.37;;;3.83;;
40601;SDS011;26310;50.278;19.032;2023-04-28T20:04:08;10.97;;;5.77;;
40601;SDS011;26310;50.278;19.032;2023-04-28T20:09:11;9.70;;;5.70;;
40601;SDS011;26310;50.278;19.032;2023-04-28T20:14:15;22.63;;;8.87;;
40601;SDS011;26310;50.278;19.032;2023-04-28T20:19:17;19.97;;;8.77;;
40601;SDS011;26310;50.278;19.032;2023-04-28T20:24:20;10.77;;;4.93;;
40601;SDS011;26310;50.278;19.032;2023-04-28T20:29:24;8.10;;;3.70;;
40601;SDS011;26310;50.278;19.032;2023-04-28T20:34:29;4.07;;;2.80;;
40601;SDS011;26310;50.278;19.032;2023-04-28T20:39:33;4.27;;;3.00;;
40601;SDS011;26310;50.278;19.032;2023-04-28T20:44:36;8.07;;;3.40;;
40601;SDS011;26310;50.278;19.032;2023-04-28T20:49:39;8.00;;;3.80;;
40601;SDS011;26310;50.278;19.032;2023-04-28T20:54:43;6.90;;;3.60;;
40601;SDS011;26310;50.278;19.032;2023-04-28T20:59:50;4.17;;;2.93;;
40601;SDS011;26310;50.278;19.032;2023-04-28T21:04:53;7.20;;;3.63;;
40601;SDS011;26310;50.278;19.032;2023-04-28T21:09:56;7.57;;;3.30;;
40601;SDS011;26310;50.278;19.032;2023-04-28T21:14:59;5.37;;;3.00;;
40601;SDS011;26310;50.278;19.032;2023-04-28T21:20:03;5.60;;;3.47;;
40601;SDS011;26310;50.278;19.032;2023-04-28T21:25:06;9.37;;;3.13;;
40601;SDS011;26310;50.278;19.032;2023-04-28T21:30:14;5.07;;;3.13;;
40601;SDS011;26310;50.278;19.032;2023-04-28T21:35:18;5.07;;;3.53;;
40601;SDS011;26310;50.278;19.032;2023-04-28T21:40:27;6.57;;;3.43;;
40601;SDS011;26310;50.278;19.032;2023-04-28T21:45:30;4.53;;;3.50;;
40601;SDS011;26310;50.278;19.032;2023-04-28T21:50:44;6.60;;;3.70;;
40601;SDS011;26310;50.278;19.032;2023-04-28T21:55:48;11.57;;;5.23;;
40601;SDS011;26310;50.278;19.032;2023-04-28T22:00:54;8.00;;;4.43;;
40601;SDS011;26310;50.278;19.032;2023-04-28T22:05:57;9.27;;;4.40;;
40601;SDS011;26310;50.278;19.032;2023-04-28T22:11:00;5.93;;;3.93;;
40601;SDS011;26310;50.278;19.032;2023-04-28T22:16:05;6.50;;;4.53;;
40601;SDS011;26310;50.278;19.032;2023-04-28T22:21:08;7.40;;;3.70;;
40601;SDS011;26310;50.278;19.032;2023-04-28T22:26:12;7.10;;;3.80;;
40601;SDS011;26310;50.278;19.032;2023-04-28T22:31:17;7.27;;;4.03;;
40601;SDS011;26310;50.278;19.032;2023-04-28T22:36:20;9.10;;;5.03;;
40601;SDS011;26310;50.278;19.032;2023-04-28T22:41:23;10.57;;;5.03;;
40601;SDS011;26310;50.278;19.032;2023-04-28T22:46:27;7.50;;;4.33;;
40601;SDS011;26310;50.278;19.032;2023-04-28T22:51:30;7.50;;;4.10;;
40601;SDS011;26310;50.278;19.032;2023-04-28T22:56:34;6.60;;;3.80;;
40601;SDS011;26310;50.278;19.032;2023-04-28T23:01:37;8.03;;;4.30;;
40601;SDS011;26310;50.278;19.032;2023-04-28T23:06:40;7.57;;;4.50;;
40601;SDS011;26310;50.278;19.032;2023-04-28T23:11:44;10.40;;;5.07;;
40601;SDS011;26310;50.278;19.032;2023-04-28T23:16:47;10.00;;;5.90;;
40601;SDS011;26310;50.278;19.032;2023-04-28T23:21:50;19.97;;;10.27;;
40601;SDS011;26310;50.278;19.032;2023-04-28T23:26:57;14.90;;;5.77;;
40601;SDS011;26310;50.278;19.032;2023-04-28T23:32:03;9.80;;;4.97;;
40601;SDS011;26310;50.278;19.032;2023-04-28T23:37:07;8.20;;;4.93;;
40601;SDS011;26310;50.278;19.032;2023-04-28T23:42:10;7.77;;;4.33;;
